Time;durP1;ratioP1;P1;durP2;ratioP2;P2;SDS_P1;SDS_P2;PMS_P1;PMS_P2;Temp;Humidity;BMP_temperature;BMP_pressure;BME280_temperature;BME280_humidity;BME280_pressure;Samples;Min_cycle;Max_cycle;Signal;HPM_P1;HPM_P2
2021/09/12 04:22:23;;;;;;;2.30;1.20;;;24.40;78.20;;;;;;5074665;27;1399552;-60
2021/09/12 04:24:49;;;;;;;1.65;0.50;;;24.40;78.80;;;;;;5123834;27;80814;-59
2021/09/12 04:27:15;;;;;;;2.88;0.40;;;24.40;78.80;;;;;;5115422;27;81566;-60
2021/09/12 04:29:42;;;;;;;1.30;0.50;;;24.40;78.70;;;;;;5106039;27;84122;-59
2021/09/12 04:32:08;;;;;;;1.85;0.60;;;24.50;78.60;;;;;;5115654;27;81868;-59
2021/09/12 04:34:33;;;;;;;1.77;0.73;;;24.50;78.40;;;;;;5118127;27;80530;-58
2021/09/12 04:36:59;;;;;;;1.65;0.40;;;24.60;78.20;;;;;;5118290;27;81132;-58
2021/09/12 04:39:25;;;;;;;5.00;0.52;;;24.60;77.90;;;;;;5107506;27;83051;-60
2021/09/12 04:41:50;;;;;;;1.30;0.65;;;24.70;77.70;;;;;;5120038;27;80839;-59
2021/09/12 04:44:16;;;;;;;2.63;0.50;;;24.70;77.50;;;;;;5115876;27;81081;-59
2021/09/12 04:46:42;;;;;;;6.57;0.50;;;24.80;77.40;;;;;;5123347;27;81015;-61
2021/09/12 04:49:08;;;;;;;2.53;0.70;;;24.80;77.20;;;;;;5122627;27;82123;-60
2021/09/12 04:51:34;;;;;;;5.20;0.50;;;24.80;77.00;;;;;;5111708;27;80844;-60
2021/09/12 04:53:59;;;;;;;1.52;0.60;;;24.90;77.00;;;;;;5119702;27;80686;-60
2021/09/12 04:56:25;;;;;;;3.72;0.43;;;24.90;76.80;;;;;;5123122;27;81044;-60
2021/09/12 04:58:51;;;;;;;3.80;0.75;;;24.90;76.70;;;;;;5116035;27;81628;-58
2021/09/12 05:01:17;;;;;;;1.50;0.50;;;24.90;76.60;;;;;;5116763;27;83256;-61
2021/09/12 05:03:43;;;;;;;1.15;0.45;;;24.90;76.50;;;;;;5108595;27;80737;-60
2021/09/12 05:06:09;;;;;;;9.85;0.52;;;24.90;76.40;;;;;;5117170;27;80726;-60
2021/09/12 05:08:35;;;;;;;4.95;0.50;;;25.00;76.40;;;;;;5115336;27;81747;-57
2021/09/12 05:11:01;;;;;;;5.35;0.60;;;25.00;76.30;;;;;;5119462;27;81050;-59
2021/09/12 05:13:27;;;;;;;3.58;0.60;;;25.00;76.30;;;;;;5117679;27;82164;-54
2021/09/12 05:15:53;;;;;;;3.95;0.38;;;25.00;76.20;;;;;;5112914;27;81366;-57
2021/09/12 05:18:19;;;;;;;3.75;0.40;;;25.00;76.20;;;;;;5115306;27;81487;-59
2021/09/12 05:20:45;;;;;;;2.40;0.70;;;25.10;76.20;;;;;;5124816;27;81329;-59
2021/09/12 05:23:10;;;;;;;1.52;0.63;;;25.10;76.20;;;;;;5120065;27;80518;-60
2021/09/12 05:25:36;;;;;;;3.85;0.38;;;25.10;76.10;;;;;;5126497;27;84279;-56
2021/09/12 05:28:02;;;;;;;2.08;0.60;;;25.10;76.10;;;;;;5118115;27;81840;-57
2021/09/12 05:30:28;;;;;;;2.03;0.45;;;25.10;76.70;;;;;;5118097;27;81814;-57
2021/09/12 05:32:54;;;;;;;1.23;0.50;;;25.10;76.00;;;;;;5111957;27;80500;-58
2021/09/12 05:35:19;;;;;;;3.30;0.40;;;25.10;76.00;;;;;;5106671;27;80545;-59
2021/09/12 05:37:46;;;;;;;1.75;0.70;;;25.10;75.90;;;;;;5102140;27;81223;-59
2021/09/12 05:40:12;;;;;;;1.90;0.57;;;25.10;75.90;;;;;;5102974;27;80736;-58
2021/09/12 05:42:39;;;;;;;4.30;0.80;;;25.10;75.80;;;;;;5102556;27;84385;-59
2021/09/12 05:45:06;;;;;;;2.53;0.77;;;25.10;75.70;;;;;;5097823;27;80711;-57
2021/09/12 05:47:34;;;;;;;3.70;0.80;;;25.10;75.60;;;;;;5104347;27;81479;-57
2021/09/12 05:50:00;;;;;;;3.38;0.43;;;25.10;75.60;;;;;;5094622;27;81544;-58
2021/09/12 05:52:25;;;;;;;4.38;0.70;;;25.20;75.60;;;;;;5107279;27;81985;-52
2021/09/12 05:54:51;;;;;;;7.13;0.45;;;25.10;75.50;;;;;;5096316;27;81401;-57
2021/09/12 05:57:17;;;;;;;8.02;0.70;;;25.10;75.50;;;;;;5105552;27;81743;-58
2021/09/12 05:59:43;;;;;;;9.07;0.98;;;25.10;75.50;;;;;;5103868;27;81387;-56
2021/09/12 06:02:09;;;;;;;20.85;0.88;;;25.20;75.80;;;;;;5099731;27;82143;-55
2021/09/12 06:04:35;;;;;;;22.65;1.60;;;25.10;75.70;;;;;;5100412;27;81394;-57
2021/09/12 06:07:00;;;;;;;19.70;1.05;;;25.20;75.90;;;;;;5096841;27;81889;-57
2021/09/12 06:09:26;;;;;;;13.25;0.93;;;25.10;75.80;;;;;;5091547;27;81339;-58
2021/09/12 06:11:52;;;;;;;12.48;0.85;;;25.20;75.90;;;;;;5093141;27;80615;-57
2021/09/12 06:14:19;;;;;;;30.00;1.35;;;25.20;76.00;;;;;;5107405;27;80688;-57
2021/09/12 06:16:45;;;;;;;39.70;1.25;;;25.10;75.80;;;;;;5093650;27;83145;-65
2021/09/12 06:19:11;;;;;;;27.75;1.30;;;25.20;76.70;;;;;;5096993;27;81648;-66
2021/09/12 06:21:36;;;;;;;19.98;1.00;;;25.40;75.80;;;;;;5100686;27;80523;-68
2021/09/12 06:24:03;;;;;;;22.63;1.25;;;25.50;75.60;;;;;;5105908;27;80823;-63
2021/09/12 06:26:29;;;;;;;21.73;1.00;;;25.60;74.80;;;;;;5099748;27;83160;-63
2021/09/12 06:28:54;;;;;;;13.02;1.30;;;25.60;74.50;;;;;;5106385;27;81899;-64
2021/09/12 06:31:21;;;;;;;14.50;1.60;;;25.50;74.40;;;;;;5102500;27;80484;-64
2021/09/12 06:33:47;;;;;;;16.58;1.58;;;25.50;74.30;;;;;;5098763;27;80679;-64
2021/09/12 06:36:13;;;;;;;8.07;1.15;;;25.50;74.20;;;;;;5095218;27;82369;-64
2021/09/12 06:38:38;;;;;;;9.07;0.93;;;25.40;74.10;;;;;;5107264;27;81368;-64
2021/09/12 06:41:04;;;;;;;8.10;1.33;;;25.40;74.00;;;;;;5097288;27;81199;-63
2021/09/12 06:43:30;;;;;;;10.48;0.73;;;25.30;73.80;;;;;;5108182;27;80499;-64
2021/09/12 06:45:56;;;;;;;11.98;1.08;;;25.30;74.50;;;;;;5084277;27;82809;-64
2021/09/12 06:48:22;;;;;;;5.30;0.95;;;25.30;74.00;;;;;;5096362;27;80960;-64
2021/09/12 06:50:47;;;;;;;10.82;0.90;;;25.30;73.90;;;;;;5096991;27;80997;-64
2021/09/12 06:53:13;;;;;;;8.65;1.05;;;25.30;74.00;;;;;;5096198;27;82126;-64
2021/09/12 06:55:39;;;;;;;10.20;0.93;;;25.30;73.90;;;;;;5103997;27;81658;-64
2021/09/12 06:58:05;;;;;;;10.38;1.00;;;25.30;73.80;;;;;;5095329;27;81794;-64
2021/09/12 07:00:31;;;;;;;11.27;1.30;;;25.30;73.90;;;;;;5103709;27;81050;-63
2021/09/12 07:02:58;;;;;;;8.85;1.20;;;25.30;73.80;;;;;;5105594;27;81266;-64
2021/09/12 07:05:24;;;;;;;10.50;0.93;;;25.30;73.90;;;;;;5094694;27;82197;-64
2021/09/12 07:07:50;;;;;;;6.95;0.98;;;25.30;74.00;;;;;;5100838;27;81221;-63
2021/09/12 07:10:18;;;;;;;5.47;0.90;;;25.30;74.10;;;;;;5098164;27;82087;-63
2021/09/12 07:12:44;;;;;;;10.80;1.23;;;25.20;74.10;;;;;;5101741;27;81527;-63
2021/09/12 07:15:11;;;;;;;9.27;0.85;;;25.20;74.20;;;;;;5100364;27;81136;-64
2021/09/12 07:17:36;;;;;;;8.23;0.80;;;25.30;74.30;;;;;;5104119;27;81107;-63
2021/09/12 07:20:03;;;;;;;25.05;1.63;;;25.20;74.20;;;;;;5106705;27;80590;-68
2021/09/12 07:22:29;;;;;;;11.13;0.80;;;25.30;75.10;;;;;;5102954;27;80877;-63
2021/09/12 07:24:54;;;;;;;6.07;1.05;;;25.30;74.60;;;;;;5101421;27;81697;-64
2021/09/12 07:27:20;;;;;;;14.23;1.10;;;25.30;74.50;;;;;;5104241;27;80978;-64
2021/09/12 07:29:46;;;;;;;12.10;1.20;;;25.20;74.40;;;;;;5098502;27;81340;-63
2021/09/12 07:32:12;;;;;;;10.52;1.27;;;25.20;74.30;;;;;;5101489;27;80783;-63
2021/09/12 07:34:37;;;;;;;11.85;1.35;;;25.20;74.30;;;;;;5101278;27;83254;-63
2021/09/12 07:37:03;;;;;;;12.35;0.98;;;25.20;74.20;;;;;;5105376;27;81290;-63
2021/09/12 07:39:29;;;;;;;10.35;1.30;;;25.20;74.30;;;;;;5104779;27;81058;-63
2021/09/12 07:41:55;;;;;;;13.85;0.90;;;25.20;74.30;;;;;;5096495;27;81088;-64
2021/09/12 07:44:21;;;;;;;8.60;0.70;;;25.20;74.20;;;;;;5098190;27;83596;-64
2021/09/12 07:46:46;;;;;;;12.20;1.27;;;25.20;74.20;;;;;;5093741;27;81210;-63
2021/09/12 07:49:12;;;;;;;10.30;1.50;;;25.20;74.20;;;;;;5105299;27;81714;-63
2021/09/12 07:51:38;;;;;;;5.47;0.88;;;25.20;74.20;;;;;;5101806;27;80601;-63
2021/09/12 07:54:03;;;;;;;8.45;1.05;;;25.20;74.20;;;;;;5103281;27;83575;-64
2021/09/12 07:56:29;;;;;;;5.78;1.17;;;25.20;74.20;;;;;;5092291;27;81900;-64
2021/09/12 07:58:55;;;;;;;7.93;1.15;;;25.20;74.20;;;;;;5101718;27;81858;-63
2021/09/12 08:01:20;;;;;;;6.85;0.82;;;25.20;74.10;;;;;;5101704;27;80722;-63
2021/09/12 08:03:46;;;;;;;9.10;1.20;;;25.20;74.10;;;;;;5095713;27;83274;-63
2021/09/12 08:06:12;;;;;;;8.00;1.17;;;25.20;74.10;;;;;;5104795;27;82223;-63
2021/09/12 08:08:37;;;;;;;11.40;1.23;;;25.20;74.00;;;;;;5103076;27;80877;-63
2021/09/12 08:11:03;;;;;;;10.10;0.55;;;25.20;74.00;;;;;;5101548;27;81057;-63
2021/09/12 08:13:29;;;;;;;7.90;0.70;;;25.20;74.00;;;;;;5095915;27;81869;-64
2021/09/12 08:15:54;;;;;;;10.52;0.90;;;25.30;74.10;;;;;;5094872;27;81697;-63
2021/09/12 08:18:22;;;;;;;2.95;0.65;;;25.20;74.00;;;;;;5098749;27;80509;-63
2021/09/12 08:20:48;;;;;;;4.97;0.80;;;25.20;74.00;;;;;;5099163;27;81005;-64
2021/09/12 08:23:14;;;;;;;7.68;1.05;;;25.20;74.00;;;;;;5100905;27;81401;-63
2021/09/12 08:25:39;;;;;;;3.90;0.73;;;25.20;74.00;;;;;;5092185;27;82311;-64
2021/09/12 08:28:05;;;;;;;4.82;0.98;;;25.20;74.00;;;;;;5103969;27;81064;-63
2021/09/12 08:30:31;;;;;;;6.25;0.93;;;25.20;74.00;;;;;;5095337;27;81930;-63
2021/09/12 08:32:57;;;;;;;3.65;0.60;;;25.20;74.00;;;;;;5104004;27;82232;-63
2021/09/12 08:35:23;;;;;;;4.28;0.60;;;25.30;74.00;;;;;;5105370;27;83311;-64
2021/09/12 08:37:49;;;;;;;8.40;0.95;;;25.30;74.10;;;;;;5093471;27;85094;-63
2021/09/12 08:40:14;;;;;;;4.00;0.73;;;25.20;74.00;;;;;;5103556;27;81308;-63
2021/09/12 08:42:42;;;;;;;5.32;0.52;;;25.20;74.00;;;;;;5099465;27;82717;-63
2021/09/12 08:45:09;;;;;;;5.65;0.75;;;25.20;74.00;;;;;;5098160;27;84353;-64
2021/09/12 08:47:35;;;;;;;4.25;0.70;;;25.20;74.00;;;;;;5097044;27;81597;-64
2021/09/12 08:50:01;;;;;;;6.35;0.60;;;25.20;74.00;;;;;;5105540;27;81266;-64
2021/09/12 08:52:27;;;;;;;4.78;0.77;;;25.20;74.00;;;;;;5103445;27;82171;-64
2021/09/12 08:54:53;;;;;;;3.85;0.63;;;25.20;74.00;;;;;;5096887;27;82512;-63
2021/09/12 08:57:19;;;;;;;3.92;0.77;;;25.20;74.00;;;;;;5093267;27;81414;-62
2021/09/12 08:59:52;;;;;;;3.58;0.73;;;25.20;74.00;;;;;;5091246;27;82010;-63
2021/09/12 09:02:27;;;;;;;6.28;0.68;;;25.20;73.90;;;;;;5090494;27;83179;-63
2021/09/12 09:05:01;;;;;;;3.30;0.85;;;25.30;74.00;;;;;;5100444;27;83815;-64
2021/09/12 09:07:32;;;;;;;3.40;0.80;;;25.30;73.90;;;;;;5101124;27;82337;-63
2021/09/12 09:10:00;;;;;;;5.63;0.70;;;25.20;73.80;;;;;;5097629;27;82209;-64
2021/09/12 09:12:34;;;;;;;2.00;0.52;;;25.20;73.80;;;;;;5098484;27;81641;-63
2021/09/12 09:15:03;;;;;;;2.22;0.60;;;25.20;73.80;;;;;;5106939;27;82514;-64
2021/09/12 09:17:29;;;;;;;3.33;0.60;;;25.30;74.00;;;;;;5106215;27;81737;-64
2021/09/12 09:19:56;;;;;;;3.53;0.50;;;25.30;74.00;;;;;;5101308;27;81166;-64
2021/09/12 09:22:33;;;;;;;3.08;0.50;;;25.30;74.00;;;;;;5107037;27;83238;-63
2021/09/12 09:25:05;;;;;;;4.70;0.60;;;25.30;73.90;;;;;;5096845;27;82581;-63
2021/09/12 09:27:49;;;;;;;2.35;0.50;;;25.30;73.90;;;;;;5108355;27;83343;-63
2021/09/12 09:30:15;;;;;;;3.25;0.73;;;25.30;74.00;;;;;;5089968;27;81529;-62
2021/09/12 09:32:41;;;;;;;2.83;0.55;;;25.30;73.90;;;;;;5098258;27;81609;-64
2021/09/12 09:35:07;;;;;;;4.35;0.70;;;25.30;73.90;;;;;;5099893;27;81650;-63
2021/09/12 09:37:32;;;;;;;3.33;0.85;;;25.30;74.00;;;;;;5093111;27;81359;-63
2021/09/12 09:39:59;;;;;;;2.35;0.80;;;25.30;74.00;;;;;;5102762;27;81116;-63
2021/09/12 09:42:40;;;;;;;3.67;0.68;;;25.30;73.90;;;;;;5107329;27;81167;-63
2021/09/12 09:45:19;;;;;;;4.00;0.52;;;25.30;73.90;;;;;;5104125;27;82189;-63
2021/09/12 09:47:47;;;;;;;3.47;0.60;;;25.30;73.90;;;;;;5094770;27;82361;-64
2021/09/12 09:50:19;;;;;;;3.42;0.50;;;25.30;73.90;;;;;;5096005;27;81961;-63
2021/09/12 09:52:51;;;;;;;4.60;0.50;;;25.30;73.90;;;;;;5094471;27;81845;-64
2021/09/12 09:55:18;;;;;;;2.90;0.40;;;25.30;73.90;;;;;;5093087;27;82288;-63
2021/09/12 09:57:51;;;;;;;3.78;0.82;;;25.30;73.90;;;;;;5096662;27;84648;-63
2021/09/12 10:00:18;;;;;;;1.58;0.40;;;25.30;73.90;;;;;;5098391;27;81437;-63
2021/09/12 10:02:44;;;;;;;3.28;0.75;;;25.30;73.90;;;;;;5107201;27;82152;-63
2021/09/12 10:05:13;;;;;;;2.33;0.63;;;25.30;73.90;;;;;;5105932;27;84270;-64
2021/09/12 10:07:40;;;;;;;3.78;0.55;;;25.30;73.90;;;;;;5102487;27;81998;-63
2021/09/12 10:10:12;;;;;;;3.17;0.45;;;25.30;73.90;;;;;;5103477;27;81431;-63
2021/09/12 10:12:48;;;;;;;2.47;0.70;;;25.30;73.80;;;;;;5069731;27;81223;-63
2021/09/12 10:15:19;;;;;;;4.15;0.82;;;25.30;74.50;;;;;;5091486;27;83311;-63
2021/09/12 10:17:47;;;;;;;2.80;0.55;;;25.30;73.80;;;;;;5095489;27;82643;-64
2021/09/12 10:20:15;;;;;;;2.53;0.70;;;25.30;73.80;;;;;;5101181;27;81695;-63
2021/09/12 10:23:01;;;;;;;4.20;0.63;;;25.30;73.90;;;;;;5103677;27;83695;-63
2021/09/12 10:25:47;;;;;;;3.13;0.52;;;25.30;73.80;;;;;;5097606;27;84133;-63
2021/09/12 10:28:13;;;;;;;2.85;0.73;;;25.30;73.90;;;;;;5085017;27;83684;-64
2021/09/12 10:30:42;;;;;;;3.85;0.60;;;25.40;73.90;;;;;;5091361;27;81806;-63
2021/09/12 10:33:08;;;;;;;2.58;0.55;;;25.30;73.90;;;;;;5100135;27;81820;-64
2021/09/12 10:35:45;;;;;;;2.55;0.55;;;25.30;73.80;;;;;;5093992;27;84439;-63
2021/09/12 10:38:13;;;;;;;2.47;0.95;;;25.30;73.80;;;;;;5105360;27;81934;-63
2021/09/12 10:40:48;;;;;;;2.40;0.50;;;25.30;73.80;;;;;;5095297;27;82019;-63
2021/09/12 10:43:26;;;;;;;3.83;0.80;;;25.30;73.80;;;;;;5091096;27;83460;-63
2021/09/12 10:46:04;;;;;;;3.05;0.57;;;25.30;73.80;;;;;;5094998;27;84364;-63
2021/09/12 10:48:33;;;;;;;3.22;0.47;;;25.30;73.80;;;;;;5105144;27;81273;-63
2021/09/12 10:51:01;;;;;;;1.70;0.52;;;25.40;73.90;;;;;;5100012;27;81518;-63
2021/09/12 10:53:45;;;;;;;2.15;0.50;;;25.40;73.90;;;;;;5106656;27;82146;-64
2021/09/12 10:56:11;;;;;;;1.73;0.43;;;25.40;73.90;;;;;;5095630;27;82157;-63
2021/09/12 10:58:38;;;;;;;2.88;0.60;;;25.40;73.90;;;;;;5104639;27;81099;-63
2021/09/12 11:01:06;;;;;;;1.48;0.40;;;25.40;73.80;;;;;;5105099;27;80999;-62
2021/09/12 11:03:33;;;;;;;1.42;0.43;;;25.40;73.90;;;;;;5107726;27;81470;-63
2021/09/12 11:05:59;;;;;;;1.73;0.55;;;25.40;73.80;;;;;;5098070;27;83552;-63
2021/09/12 11:08:39;;;;;;;1.52;0.63;;;25.40;73.90;;;;;;5099720;27;83762;-63
2021/09/12 11:11:06;;;;;;;3.03;0.52;;;25.40;73.90;;;;;;5100232;27;81794;-63
2021/09/12 11:13:33;;;;;;;1.42;0.40;;;25.40;73.90;;;;;;5093693;27;81893;-63
2021/09/12 11:16:19;;;;;;;1.30;0.40;;;25.40;73.90;;;;;;5097840;27;83955;-63
2021/09/12 11:18:50;;;;;;;1.48;0.35;;;25.40;73.90;;;;;;5092768;27;83951;-63
2021/09/12 11:21:34;;;;;;;2.50;0.55;;;25.40;73.90;;;;;;5098392;27;81841;-64
2021/09/12 11:24:09;;;;;;;2.72;0.75;;;25.40;73.90;;;;;;5091624;27;83163;-63
2021/09/12 11:26:42;;;;;;;1.35;0.35;;;25.40;73.90;;;;;;5098521;27;84092;-64
2021/09/12 11:29:25;;;;;;;1.23;0.52;;;25.40;73.90;;;;;;5090820;27;81972;-63
2021/09/12 11:31:54;;;;;;;1.25;0.60;;;25.40;73.90;;;;;;5094740;27;82693;-63
2021/09/12 11:34:22;;;;;;;1.80;0.60;;;25.40;73.90;;;;;;5096228;27;82917;-63
2021/09/12 11:37:01;;;;;;;1.30;0.22;;;25.40;73.90;;;;;;5096719;27;81625;-63
2021/09/12 11:39:35;;;;;;;0.98;0.35;;;25.40;73.90;;;;;;5103019;27;82071;-63
2021/09/12 11:42:04;;;;;;;1.40;0.40;;;25.40;73.90;;;;;;5097174;27;81440;-63
2021/09/12 11:44:39;;;;;;;0.90;0.30;;;25.50;74.00;;;;;;5100556;27;83121;-63
2021/09/12 11:47:10;;;;;;;1.70;0.73;;;25.50;74.10;;;;;;5095617;27;81642;-63
2021/09/12 11:49:37;;;;;;;1.33;0.43;;;25.50;74.00;;;;;;5103264;27;83623;-63
2021/09/12 11:52:03;;;;;;;2.53;0.52;;;25.50;74.10;;;;;;5105237;27;81315;-63
2021/09/12 11:54:35;;;;;;;1.73;0.43;;;25.50;74.10;;;;;;5098450;27;81771;-63
2021/09/12 11:57:08;;;;;;;1.65;0.30;;;25.50;74.10;;;;;;5097707;27;84641;-62
2021/09/12 11:59:46;;;;;;;0.88;0.20;;;25.50;74.10;;;;;;5106153;27;82991;-63
2021/09/12 12:02:19;;;;;;;1.33;0.52;;;25.50;74.10;;;;;;5093688;27;82919;-63
2021/09/12 12:04:46;;;;;;;1.35;0.47;;;25.50;74.10;;;;;;5099136;27;81075;-64
2021/09/12 12:07:12;;;;;;;1.00;0.40;;;25.50;74.10;;;;;;5098230;27;84045;-63
2021/09/12 12:09:49;;;;;;;1.88;0.75;;;25.50;74.10;;;;;;5096825;27;83923;-63
2021/09/12 12:12:19;;;;;;;1.63;0.40;;;25.50;74.80;;;;;;5100871;27;80986;-63
2021/09/12 12:15:09;;;;;;;1.83;0.50;;;25.50;74.10;;;;;;5095495;27;81795;-63
2021/09/12 12:17:34;;;;;;;1.15;0.43;;;25.50;74.10;;;;;;5093511;27;84556;-63
2021/09/12 12:20:01;;;;;;;1.45;0.30;;;25.50;74.10;;;;;;5098959;27;83109;-63
2021/09/12 12:22:37;;;;;;;1.40;0.52;;;25.50;74.10;;;;;;5093032;27;81989;-63
2021/09/12 12:25:04;;;;;;;1.05;0.40;;;25.50;74.10;;;;;;5095429;27;83070;-63
2021/09/12 12:27:39;;;;;;;4.07;0.38;;;25.50;74.10;;;;;;5094316;27;81525;-63
2021/09/12 12:30:05;;;;;;;1.10;0.43;;;25.60;74.20;;;;;;5091443;27;83115;-63
2021/09/12 12:32:32;;;;;;;1.63;0.50;;;25.60;74.20;;;;;;5099638;27;81836;-63
2021/09/12 12:35:01;;;;;;;1.63;0.50;;;25.60;74.20;;;;;;5104809;27;81683;-63
2021/09/12 12:37:27;;;;;;;3.42;0.47;;;25.60;74.30;;;;;;5095280;27;83162;-63
2021/09/12 12:40:17;;;;;;;0.98;0.43;;;25.60;74.30;;;;;;5098276;27;83267;-63
2021/09/12 12:42:45;;;;;;;0.80;0.32;;;25.60;74.30;;;;;;5102526;27;81072;-63
2021/09/12 12:45:17;;;;;;;1.50;0.47;;;25.60;74.30;;;;;;5100855;27;81876;-63
2021/09/12 12:47:43;;;;;;;1.10;0.40;;;25.60;74.30;;;;;;5102884;27;84297;-63
2021/09/12 12:50:09;;;;;;;1.45;0.40;;;25.60;74.30;;;;;;5108806;27;82251;-63
2021/09/12 12:52:34;;;;;;;1.13;0.50;;;25.60;74.30;;;;;;5105677;27;81955;-63
2021/09/12 12:55:00;;;;;;;1.63;0.52;;;25.60;74.30;;;;;;5098753;27;82248;-63
2021/09/12 12:57:28;;;;;;;1.05;0.50;;;25.60;74.30;;;;;;5105662;27;83029;-63
2021/09/12 12:59:54;;;;;;;1.58;0.45;;;25.70;74.30;;;;;;5100855;27;81401;-63
2021/09/12 13:02:20;;;;;;;3.35;0.80;;;25.70;74.30;;;;;;5100025;27;81141;-63
2021/09/12 13:04:47;;;;;;;1.10;0.50;;;25.70;74.30;;;;;;5102375;27;83653;-63
2021/09/12 13:07:13;;;;;;;1.05;0.32;;;25.70;74.30;;;;;;5094424;27;83072;-63
2021/09/12 13:09:39;;;;;;;1.73;0.63;;;25.70;74.30;;;;;;5098573;27;81233;-63
2021/09/12 13:12:07;;;;;;;1.23;0.47;;;25.70;74.30;;;;;;5093146;27;82033;-63
2021/09/12 13:14:34;;;;;;;1.10;0.73;;;25.70;74.30;;;;;;5092845;27;83073;-63
2021/09/12 13:17:00;;;;;;;1.10;0.57;;;25.70;74.30;;;;;;5099109;27;82188;-63
2021/09/12 13:19:26;;;;;;;1.08;0.35;;;25.70;74.30;;;;;;5097929;27;81551;-63
2021/09/12 13:21:52;;;;;;;0.90;0.40;;;25.70;74.30;;;;;;5094575;27;81082;-63
2021/09/12 13:24:18;;;;;;;0.82;0.30;;;25.70;74.30;;;;;;5106291;27;83140;-63
2021/09/12 13:26:44;;;;;;;1.02;0.40;;;25.70;74.20;;;;;;5096949;27;83565;-63
2021/09/12 13:29:10;;;;;;;1.88;0.30;;;25.70;74.20;;;;;;5105095;27;81839;-63
2021/09/12 13:31:36;;;;;;;1.00;0.40;;;25.70;74.20;;;;;;5095288;27;81045;-63
2021/09/12 13:34:02;;;;;;;1.30;0.63;;;25.70;74.20;;;;;;5105341;27;82093;-63
2021/09/12 13:36:29;;;;;;;1.25;0.40;;;25.70;74.20;;;;;;5096862;27;83134;-64
2021/09/12 13:38:56;;;;;;;0.80;0.30;;;25.70;74.20;;;;;;5095657;27;84068;-63
2021/09/12 13:41:23;;;;;;;1.33;0.30;;;25.70;74.20;;;;;;5097754;27;81752;-63
2021/09/12 13:43:48;;;;;;;1.23;0.65;;;25.80;74.20;;;;;;5097839;27;82664;-63
2021/09/12 13:46:15;;;;;;;1.20;0.50;;;25.80;74.20;;;;;;5101507;27;82311;-63
2021/09/12 13:48:41;;;;;;;1.95;0.43;;;25.80;74.20;;;;;;5108719;27;81743;-63
2021/09/12 13:51:07;;;;;;;1.10;0.40;;;25.80;74.30;;;;;;5097213;27;81161;-63
2021/09/12 13:53:33;;;;;;;1.00;0.50;;;25.80;74.90;;;;;;5100139;27;83003;-63
2021/09/12 13:55:59;;;;;;;0.80;0.22;;;25.80;74.20;;;;;;5097418;27;83693;-63
2021/09/12 13:58:25;;;;;;;0.73;0.32;;;25.80;74.20;;;;;;5104773;27;82034;-63
2021/09/12 14:00:50;;;;;;;1.00;0.30;;;25.80;74.20;;;;;;5094546;27;82165;-63
2021/09/12 14:03:16;;;;;;;1.38;0.50;;;25.80;74.20;;;;;;5093884;27;83513;-63
2021/09/12 14:05:42;;;;;;;1.85;0.38;;;25.80;74.20;;;;;;5104165;27;81623;-63
2021/09/12 14:08:08;;;;;;;1.00;0.47;;;25.80;74.10;;;;;;5104802;27;81711;-63
2021/09/12 14:10:33;;;;;;;1.15;0.40;;;25.80;74.10;;;;;;5100567;27;80968;-63
2021/09/12 14:12:59;;;;;;;1.17;0.70;;;25.80;74.10;;;;;;5104007;27;83054;-63
2021/09/12 14:15:25;;;;;;;1.30;0.45;;;25.80;74.10;;;;;;5093024;27;81652;-63
2021/09/12 14:17:50;;;;;;;0.90;0.40;;;25.80;74.10;;;;;;5104668;27;82103;-63
2021/09/12 14:20:16;;;;;;;1.95;0.40;;;25.80;74.10;;;;;;5096496;27;80993;-63
2021/09/12 14:22:42;;;;;;;0.75;0.30;;;25.80;74.10;;;;;;5098472;27;81292;-63
2021/09/12 14:25:08;;;;;;;1.20;0.75;;;25.90;74.20;;;;;;5092274;27;83430;-63
2021/09/12 14:27:34;;;;;;;0.82;0.32;;;25.90;74.10;;;;;;5104939;27;83722;-63
2021/09/12 14:30:01;;;;;;;1.13;0.30;;;25.90;74.10;;;;;;5103445;27;81027;-63
2021/09/12 14:32:26;;;;;;;0.80;0.60;;;25.90;74.10;;;;;;5093621;27;81524;-62
2021/09/12 14:34:52;;;;;;;1.13;0.40;;;25.90;74.10;;;;;;5105999;27;82194;-63
2021/09/12 14:37:18;;;;;;;1.42;0.50;;;25.90;74.10;;;;;;5104025;27;81998;-63
2021/09/12 14:39:43;;;;;;;0.93;0.43;;;25.90;74.10;;;;;;5101820;27;81098;-63
2021/09/12 14:42:14;;;;;;;1.23;0.77;;;25.90;74.10;;;;;;5104558;27;82164;-63
2021/09/12 14:44:39;;;;;;;1.08;0.52;;;25.90;74.10;;;;;;5101085;27;82682;-63
2021/09/12 14:47:05;;;;;;;1.02;0.38;;;25.90;74.00;;;;;;5103974;27;81491;-63
2021/09/12 14:49:31;;;;;;;2.80;0.50;;;25.90;74.00;;;;;;5104137;27;82442;-60
2021/09/12 14:51:56;;;;;;;27.00;0.82;;;25.90;74.90;;;;;;5097150;27;82819;-57
2021/09/12 14:54:22;;;;;;;65.00;2.08;;;25.90;74.90;;;;;;5095771;27;81975;-54
2021/09/12 14:56:48;;;;;;;11.38;0.77;;;25.90;74.90;;;;;;5099571;27;81418;-59
2021/09/12 14:59:14;;;;;;;13.32;0.90;;;25.80;74.90;;;;;;5107175;27;81908;-58
2021/09/12 15:01:39;;;;;;;7.38;0.68;;;25.80;74.90;;;;;;5101571;27;83762;-58
2021/09/12 15:04:05;;;;;;;5.90;0.63;;;25.80;74.90;;;;;;5106521;27;82584;-59
2021/09/12 15:06:31;;;;;;;4.20;0.93;;;25.70;74.70;;;;;;5103373;27;81468;-59
2021/09/12 15:08:56;;;;;;;5.18;1.20;;;25.70;74.60;;;;;;5104346;27;81053;-59
2021/09/12 15:11:22;;;;;;;5.30;0.70;;;25.70;74.50;;;;;;5106755;27;82120;-59
2021/09/12 15:13:48;;;;;;;6.90;1.50;;;25.70;74.50;;;;;;5107354;27;82590;-63
2021/09/12 15:16:13;;;;;;;12.40;1.80;;;25.70;74.20;;;;;;5101134;27;82193;-59
2021/09/12 15:18:39;;;;;;;6.95;1.13;;;25.70;74.20;;;;;;5096265;27;81376;-59
2021/09/12 15:21:05;;;;;;;5.72;1.48;;;25.70;74.30;;;;;;5102566;27;81042;-59
2021/09/12 15:23:31;;;;;;;10.60;1.50;;;25.70;74.10;;;;;;5107036;27;81371;-60
2021/09/12 15:25:57;;;;;;;5.75;1.98;;;25.70;73.90;;;;;;5102974;27;81867;-59
2021/09/12 15:28:23;;;;;;;5.30;1.92;;;25.70;74.40;;;;;;5105245;27;81767;-58
2021/09/12 15:30:49;;;;;;;8.40;2.08;;;25.70;73.70;;;;;;5104178;27;81634;-58
2021/09/12 15:33:14;;;;;;;5.13;1.75;;;25.70;73.80;;;;;;5107491;27;83728;-58
2021/09/12 15:35:40;;;;;;;7.15;1.60;;;25.70;73.70;;;;;;5093665;27;81500;-58
2021/09/12 15:38:06;;;;;;;5.15;1.63;;;25.70;73.60;;;;;;5100006;27;81938;-58
2021/09/12 15:40:31;;;;;;;6.13;1.42;;;25.70;73.50;;;;;;5100194;27;81736;-59
2021/09/12 15:42:57;;;;;;;4.32;1.63;;;25.70;73.70;;;;;;5100852;27;81470;-59
2021/09/12 15:45:23;;;;;;;4.55;1.60;;;25.70;73.70;;;;;;5102251;27;82541;-57
2021/09/12 15:47:49;;;;;;;4.10;1.45;;;25.70;73.80;;;;;;5097598;27;81948;-57
2021/09/12 15:50:15;;;;;;;4.70;1.90;;;25.70;73.80;;;;;;5093666;27;81608;-59
2021/09/12 15:52:41;;;;;;;5.03;1.75;;;25.70;73.70;;;;;;5099387;27;83507;-60
2021/09/12 15:55:08;;;;;;;8.02;1.83;;;25.70;73.70;;;;;;5095070;27;81614;-58
2021/09/12 15:57:34;;;;;;;4.05;1.58;;;25.70;73.70;;;;;;5097888;27;81074;-59
2021/09/12 16:00:00;;;;;;;4.18;2.00;;;25.70;73.60;;;;;;5097295;27;81776;-59
2021/09/12 16:02:25;;;;;;;3.72;1.80;;;25.70;73.60;;;;;;5099221;27;82251;-59
2021/09/12 16:04:51;;;;;;;4.60;2.25;;;25.70;73.50;;;;;;5105554;27;82851;-60
2021/09/12 16:07:17;;;;;;;4.38;1.63;;;25.70;73.50;;;;;;5100583;27;81600;-60
2021/09/12 16:09:43;;;;;;;7.45;1.40;;;25.70;74.00;;;;;;5102278;27;81473;-55
2021/09/12 16:12:08;;;;;;;4.30;1.45;;;25.70;73.70;;;;;;5096683;27;83624;-58
2021/09/12 16:14:34;;;;;;;6.40;1.88;;;25.70;73.70;;;;;;5090180;27;81934;-58
2021/09/12 16:17:00;;;;;;;4.57;1.23;;;25.70;73.80;;;;;;5092267;27;80976;-58
2021/09/12 16:19:25;;;;;;;4.07;1.60;;;25.70;73.70;;;;;;5102349;27;81152;-59
2021/09/12 16:21:51;;;;;;;3.63;1.83;;;25.70;73.60;;;;;;5093235;27;82117;-59
2021/09/12 16:24:17;;;;;;;5.10;1.80;;;25.70;73.50;;;;;;5095483;27;83521;-58
2021/09/12 16:26:43;;;;;;;7.88;1.90;;;25.80;73.60;;;;;;5103390;27;81932;-58
2021/09/12 16:29:08;;;;;;;6.70;1.90;;;25.70;73.60;;;;;;5099879;27;82291;-58
2021/09/12 16:31:34;;;;;;;12.20;2.28;;;25.70;73.90;;;;;;5100396;27;82028;-58
2021/09/12 16:34:01;;;;;;;7.78;2.40;;;25.70;74.40;;;;;;5095179;27;84013;-57
2021/09/12 16:36:27;;;;;;;10.98;2.75;;;25.70;74.60;;;;;;5100136;27;81437;-57
2021/09/12 16:38:52;;;;;;;11.20;2.40;;;25.70;75.00;;;;;;5097971;27;81147;-57
2021/09/12 16:41:18;;;;;;;15.60;2.35;;;25.80;75.70;;;;;;5107770;27;81378;-58
2021/09/12 16:43:46;;;;;;;13.40;3.03;;;25.80;76.00;;;;;;5106005;27;81176;-57
2021/09/12 16:48:56;;;;;;;17.27;2.55;;;25.80;76.50;;;;;;5103008;27;81484;-59
2021/09/12 16:51:22;;;;;;;18.23;2.97;;;25.80;76.40;;;;;;5096312;27;82568;-58
2021/09/12 16:53:47;;;;;;;15.25;3.15;;;25.80;76.80;;;;;;5102638;27;82416;-58
2021/09/12 16:56:13;;;;;;;24.10;3.28;;;25.80;75.60;;;;;;5087962;27;81663;-57
2021/09/12 16:58:39;;;;;;;11.93;3.03;;;25.80;76.40;;;;;;5099735;27;83211;-58
2021/09/12 17:01:04;;;;;;;14.95;3.28;;;25.80;76.20;;;;;;5097722;27;83496;-55
2021/09/12 17:03:30;;;;;;;13.02;3.10;;;25.70;75.60;;;;;;5101718;27;82368;-58
2021/09/12 17:05:56;;;;;;;11.35;3.13;;;25.70;76.10;;;;;;5099799;27;81588;-59
2021/09/12 17:08:21;;;;;;;13.18;3.33;;;25.70;74.30;;;;;;5096863;27;82185;-58
2021/09/12 17:10:47;;;;;;;8.45;2.50;;;25.70;73.90;;;;;;5098934;27;82508;-57